Time;durP1;ratioP1;P1;durP2;ratioP2;P2;SDS_P1;SDS_P2;PMS_P1;PMS_P2;Temp;Humidity;BMP_temperature;BMP_pressure;BME280_temperature;BME280_humidity;BME280_pressure;Samples;Min_cycle;Max_cycle;Signal;HPM_P1;HPM_P2
2022/04/17 00:00:43;;;;;;;10.80;9.70;;;5.10;99.90;;;;;;5075361;28;20489;-57
2022/04/17 00:03:15;;;;;;;11.80;9.17;;;5.20;99.90;;;;;;5076773;28;20907;-58
2022/04/17 00:05:43;;;;;;;13.50;8.53;;;5.20;99.90;;;;;;5076315;28;20488;-54
2022/04/17 00:08:15;;;;;;;12.70;9.33;;;5.30;99.90;;;;;;5076848;28;20468;-56
2022/04/17 00:10:52;;;;;;;10.13;7.70;;;5.20;99.90;;;;;;5076329;28;20882;-57
2022/04/17 00:13:26;;;;;;;9.00;8.10;;;5.20;99.90;;;;;;5076663;28;20461;-57
2022/04/17 00:15:55;;;;;;;9.80;7.60;;;5.20;99.90;;;;;;5076589;28;20512;-57
2022/04/17 00:18:22;;;;;;;10.27;9.17;;;5.10;99.90;;;;;;5076297;28;20464;-57
2022/04/17 00:20:50;;;;;;;8.77;7.87;;;5.10;99.90;;;;;;5075816;28;20961;-56
2022/04/17 00:23:19;;;;;;;9.73;7.40;;;5.10;99.90;;;;;;5080457;28;20514;-56
2022/04/17 00:25:56;;;;;;;10.33;7.63;;;5.20;99.90;;;;;;5079951;28;20903;-57
2022/04/17 00:28:25;;;;;;;10.47;8.30;;;5.10;99.90;;;;;;5080181;28;20890;-57
2022/04/17 00:30:55;;;;;;;8.13;7.30;;;5.00;99.90;;;;;;5079974;28;20469;-57
2022/04/17 00:33:31;;;;;;;8.43;7.63;;;5.00;99.90;;;;;;5080263;28;20567;-54
2022/04/17 00:35:59;;;;;;;10.60;8.47;;;5.10;99.90;;;;;;5078412;28;20460;-57
2022/04/17 00:38:28;;;;;;;8.87;7.90;;;5.20;99.90;;;;;;5079436;28;20538;-57
2022/04/17 00:40:56;;;;;;;12.53;7.80;;;5.20;99.90;;;;;;5079452;28;20803;-57
2022/04/17 00:43:30;;;;;;;8.67;7.77;;;5.20;99.90;;;;;;5078662;28;20479;-56
2022/04/17 00:46:00;;;;;;;8.43;7.60;;;5.30;99.90;;;;;;5079912;28;20461;-57
2022/04/17 00:48:27;;;;;;;9.20;7.40;;;5.30;99.90;;;;;;5079615;28;20465;-56
2022/04/17 00:50:58;;;;;;;10.67;8.07;;;5.20;99.90;;;;;;5079646;28;20465;-57
2022/04/17 00:53:29;;;;;;;8.80;7.10;;;5.30;99.90;;;;;;5079212;28;20469;-55
2022/04/17 00:56:02;;;;;;;10.13;6.37;;;5.30;99.90;;;;;;5079384;28;20764;-57
2022/04/17 00:58:33;;;;;;;7.73;6.60;;;5.40;99.90;;;;;;5059761;28;20481;-56
2022/04/17 01:01:01;;;;;;;8.30;7.00;;;5.20;99.90;;;;;;5058964;28;20548;-56
2022/04/17 01:03:28;;;;;;;7.53;6.73;;;5.20;99.90;;;;;;5070327;28;20461;-57
2022/04/17 01:06:02;;;;;;;8.70;7.63;;;5.20;99.90;;;;;;5079351;28;20949;-57
2022/04/17 01:08:31;;;;;;;8.43;7.37;;;5.20;99.90;;;;;;5079105;28;20882;-57
2022/04/17 01:10:58;;;;;;;7.87;6.37;;;5.30;99.90;;;;;;5077516;28;20762;-55
2022/04/17 01:13:26;;;;;;;8.07;6.60;;;5.40;99.90;;;;;;5078642;28;20495;-57
2022/04/17 01:18:57;;;;;;;8.00;6.50;;;5.40;99.90;;;;;;5077812;28;20466;-57
2022/04/17 01:21:27;;;;;;;10.10;6.63;;;5.40;99.90;;;;;;5078790;28;20542;-55
2022/04/17 01:29:31;;;;;;;7.43;6.57;;;5.50;99.90;;;;;;5068583;28;20457;-56
2022/04/17 01:32:00;;;;;;;7.90;5.67;;;5.60;99.90;;;;;;5079484;28;20453;-56
2022/04/17 01:34:32;;;;;;;6.60;5.60;;;5.70;99.90;;;;;;5077305;28;20479;-56
2022/04/17 01:37:07;;;;;;;6.70;5.60;;;5.70;99.90;;;;;;5077952;28;20457;-56
2022/04/17 01:39:34;;;;;;;6.10;4.87;;;5.80;99.90;;;;;;5079356;28;20459;-56
2022/04/17 01:42:07;;;;;;;6.00;5.50;;;6.00;99.90;;;;;;5078913;28;20498;-55
2022/04/17 01:44:36;;;;;;;6.33;5.00;;;6.00;99.90;;;;;;5078120;28;20462;-56
2022/04/17 01:47:03;;;;;;;5.20;4.70;;;6.10;99.90;;;;;;5078814;28;20468;-56
2022/04/17 01:49:30;;;;;;;5.00;4.50;;;6.20;99.90;;;;;;5078377;28;20461;-56
2022/04/17 01:52:02;;;;;;;6.37;5.57;;;6.10;99.90;;;;;;5078370;28;20503;-56
2022/04/17 01:54:37;;;;;;;5.60;5.10;;;6.20;99.90;;;;;;5077929;28;20768;-56
2022/04/17 01:57:10;;;;;;;6.40;5.03;;;6.20;99.90;;;;;;5078365;28;20461;-56
2022/04/17 01:59:40;;;;;;;4.87;4.37;;;6.30;99.90;;;;;;5078524;28;20465;-56
2022/04/17 02:02:07;;;;;;;7.37;4.77;;;6.20;99.90;;;;;;5078910;28;20511;-56
2022/04/17 02:04:39;;;;;;;4.40;4.00;;;6.20;99.90;;;;;;5077547;28;20457;-56
2022/04/17 02:07:07;;;;;;;5.70;5.20;;;6.20;99.90;;;;;;5077367;28;20466;-56
2022/04/17 02:09:37;;;;;;;5.73;5.23;;;6.10;99.90;;;;;;5077320;28;20465;-56
2022/04/17 02:12:05;;;;;;;6.77;5.10;;;6.10;99.90;;;;;;5078085;28;20468;-55
2022/04/17 02:14:32;;;;;;;5.37;4.87;;;6.20;99.90;;;;;;5076820;28;20492;-54
2022/04/17 02:17:02;;;;;;;5.80;5.20;;;6.20;99.90;;;;;;5077325;28;20470;-55
2022/04/17 02:19:31;;;;;;;8.17;5.00;;;6.20;99.90;;;;;;5078138;28;20492;-56
2022/04/17 02:21:58;;;;;;;7.20;5.87;;;6.20;99.90;;;;;;5078560;28;20489;-56
2022/04/17 02:24:25;;;;;;;6.70;5.53;;;6.10;99.90;;;;;;5077836;28;20886;-55
2022/04/17 02:26:56;;;;;;;6.20;5.60;;;6.20;99.90;;;;;;5077300;28;20748;-56
2022/04/17 02:29:23;;;;;;;7.67;5.40;;;6.20;99.90;;;;;;5078016;28;20902;-56
2022/04/17 02:31:50;;;;;;;7.53;5.10;;;6.20;99.90;;;;;;5077548;28;20527;-56
2022/04/17 02:34:20;;;;;;;5.40;4.90;;;6.20;99.90;;;;;;5077890;28;20432;-56
2022/04/17 02:36:47;;;;;;;8.00;5.30;;;6.10;99.90;;;;;;5076229;28;20559;-56
2022/04/17 02:39:16;;;;;;;5.83;5.23;;;6.10;99.90;;;;;;5077642;28;20959;-56
2022/04/17 02:41:43;;;;;;;7.87;5.67;;;5.80;99.90;;;;;;5077343;28;20489;-56
2022/04/17 02:44:14;;;;;;;6.73;6.03;;;5.60;99.90;;;;;;5077452;28;20511;-55
2022/04/17 02:49:25;;;;;;;8.60;6.23;;;5.40;99.90;;;;;;5077409;28;20437;-56
2022/04/17 02:51:52;;;;;;;6.40;5.37;;;5.20;99.90;;;;;;5077714;28;20507;-56
2022/04/17 02:54:19;;;;;;;6.50;5.80;;;5.20;99.90;;;;;;5077521;28;20947;-56
2022/04/17 02:56:46;;;;;;;6.43;5.80;;;5.10;99.90;;;;;;5077281;28;20461;-57
2022/04/17 02:59:15;;;;;;;7.30;6.00;;;5.10;99.90;;;;;;5077232;28;20466;-56
2022/04/17 03:07:20;;;;;;;7.47;6.40;;;4.90;99.90;;;;;;5077161;28;20905;-53
2022/04/17 03:09:50;;;;;;;6.93;6.20;;;4.90;99.90;;;;;;5077177;28;20472;-56
2022/04/17 03:12:17;;;;;;;6.40;5.90;;;4.90;99.90;;;;;;5077303;28;20453;-56
2022/04/17 03:14:46;;;;;;;5.80;5.10;;;4.90;99.90;;;;;;5077322;28;20828;-56
2022/04/17 03:17:14;;;;;;;6.40;5.80;;;4.90;99.90;;;;;;5077101;28;20469;-54
2022/04/17 03:19:42;;;;;;;6.30;5.70;;;4.80;99.90;;;;;;5076693;28;20461;-56
2022/04/17 03:22:12;;;;;;;6.40;5.80;;;4.70;99.90;;;;;;5076374;28;20560;-57
2022/04/17 03:24:40;;;;;;;8.37;5.27;;;4.70;99.90;;;;;;5077374;28;20775;-56
2022/04/17 03:27:12;;;;;;;7.83;6.47;;;4.70;99.90;;;;;;5077455;28;20514;-56
2022/04/17 03:29:42;;;;;;;6.40;5.80;;;4.60;99.90;;;;;;5076974;28;20542;-56
2022/04/17 03:32:11;;;;;;;6.93;5.40;;;4.50;99.90;;;;;;5077019;28;20497;-56
2022/04/17 03:34:38;;;;;;;7.07;5.50;;;4.50;99.90;;;;;;5076940;28;20469;-56
2022/04/17 03:37:06;;;;;;;6.03;5.40;;;4.50;99.90;;;;;;5077342;28;20461;-55
2022/04/17 03:39:33;;;;;;;5.90;5.40;;;4.60;99.90;;;;;;5076995;28;20461;-54
2022/04/17 03:42:00;;;;;;;6.67;5.60;;;4.60;99.90;;;;;;5077253;28;20489;-57
2022/04/17 03:44:30;;;;;;;5.63;5.03;;;4.60;99.90;;;;;;5076252;28;20465;-56
2022/04/17 03:46:57;;;;;;;8.47;5.87;;;4.60;99.90;;;;;;5076804;28;20461;-57
2022/04/17 03:49:29;;;;;;;6.10;5.30;;;4.40;99.90;;;;;;5076420;28;20464;-56
2022/04/17 03:52:01;;;;;;;7.27;5.70;;;4.40;99.90;;;;;;5076843;28;20507;-57
2022/04/17 03:54:44;;;;;;;6.03;5.43;;;4.40;99.90;;;;;;5076050;28;20465;-56
2022/04/17 03:57:11;;;;;;;6.70;6.10;;;4.30;99.90;;;;;;5079191;28;20546;-57
2022/04/17 03:59:38;;;;;;;9.83;6.33;;;4.20;99.90;;;;;;5080100;28;20488;-57
2022/04/17 04:02:07;;;;;;;7.93;6.67;;;4.20;99.90;;;;;;5080404;28;20488;-57
2022/04/17 04:04:38;;;;;;;6.20;5.60;;;4.20;99.90;;;;;;5080534;28;20518;-57
2022/04/17 04:07:05;;;;;;;6.93;6.23;;;4.10;99.90;;;;;;5079897;28;20465;-57
2022/04/17 04:09:33;;;;;;;6.57;5.80;;;4.00;99.90;;;;;;5079984;28;20507;-55
2022/04/17 04:12:05;;;;;;;6.00;5.40;;;4.00;99.90;;;;;;5080574;28;20461;-57
2022/04/17 04:14:32;;;;;;;5.80;5.20;;;4.00;99.90;;;;;;5080209;28;20518;-56
2022/04/17 04:17:00;;;;;;;7.10;6.20;;;4.00;99.90;;;;;;5079939;28;20514;-56
2022/04/17 04:19:29;;;;;;;9.80;6.73;;;3.80;99.90;;;;;;5080087;28;20510;-56
2022/04/17 04:21:59;;;;;;;5.97;5.37;;;3.90;99.90;;;;;;5080020;28;20481;-56
2022/04/17 04:24:34;;;;;;;8.00;6.70;;;3.90;99.90;;;;;;5080125;28;20440;-57
2022/04/17 04:29:54;;;;;;;6.87;5.73;;;4.00;99.90;;;;;;5080231;28;20448;-57
2022/04/17 04:32:21;;;;;;;7.40;6.00;;;3.90;99.90;;;;;;5079092;28;20468;-57
2022/04/17 04:34:48;;;;;;;6.93;5.93;;;3.90;99.90;;;;;;5079732;28;20556;-58
2022/04/17 04:37:21;;;;;;;6.77;5.87;;;3.70;99.90;;;;;;5079603;28;20941;-57
2022/04/17 04:39:48;;;;;;;6.57;5.73;;;3.80;99.90;;;;;;5079643;28;20952;-57
2022/04/17 04:42:15;;;;;;;6.90;5.93;;;3.70;99.90;;;;;;5079468;28;20484;-56
2022/04/17 04:46:06;;;;;;;7.63;6.33;;;3.80;99.90;;;;;;5079537;28;20465;-57
2022/04/17 04:47:34;;;;;;;7.30;6.17;;;3.90;99.90;;;;;;5079347;28;20514;-55
2022/04/17 04:50:02;;;;;;;7.10;5.80;;;3.90;99.90;;;;;;5080061;28;20461;-56
2022/04/17 04:52:36;;;;;;;8.50;6.47;;;3.80;99.90;;;;;;5078772;28;20548;-56
2022/04/17 04:55:04;;;;;;;6.97;5.23;;;3.90;99.90;;;;;;5079818;28;20464;-56
2022/04/17 04:57:31;;;;;;;7.90;5.30;;;4.00;99.90;;;;;;5079266;28;20465;-57
2022/04/17 04:59:58;;;;;;;8.30;5.63;;;4.10;99.90;;;;;;5079749;28;20473;-56
2022/04/17 05:02:25;;;;;;;8.83;5.73;;;4.10;99.90;;;;;;5078794;28;20554;-56
2022/04/17 05:04:56;;;;;;;5.23;4.73;;;4.20;99.90;;;;;;5079467;28;20465;-57
2022/04/17 05:07:23;;;;;;;7.00;4.80;;;4.30;99.90;;;;;;5079023;28;20472;-57
2022/04/17 05:09:55;;;;;;;6.57;5.13;;;4.40;99.90;;;;;;5079527;28;20465;-57
2022/04/17 05:12:23;;;;;;;6.00;5.40;;;4.40;99.90;;;;;;5078432;28;20450;-56
2022/04/17 05:14:50;;;;;;;5.33;4.83;;;4.40;99.90;;;;;;5079091;28;20444;-57
2022/04/17 05:17:20;;;;;;;5.30;4.73;;;4.40;99.90;;;;;;5078469;28;20462;-56
2022/04/17 05:19:47;;;;;;;5.20;4.43;;;4.40;99.90;;;;;;5078934;28;20462;-57
2022/04/17 05:22:16;;;;;;;5.37;4.87;;;4.60;99.90;;;;;;5079581;28;20589;-57
2022/04/17 05:24:45;;;;;;;5.13;4.70;;;4.60;99.90;;;;;;5078432;28;20462;-57
2022/04/17 05:27:18;;;;;;;5.53;5.03;;;4.70;99.90;;;;;;5079203;28;20503;-57
2022/04/17 05:29:45;;;;;;;5.93;5.20;;;4.80;99.90;;;;;;5078340;28;20813;-57
2022/04/17 05:32:13;;;;;;;4.00;3.70;;;4.90;99.90;;;;;;5079099;28;20894;-57
2022/04/17 05:34:42;;;;;;;4.20;3.80;;;4.90;99.90;;;;;;5078616;28;20472;-56
2022/04/17 05:37:09;;;;;;;5.30;4.27;;;5.20;99.90;;;;;;5078912;28;20999;-57
2022/04/17 05:39:38;;;;;;;4.93;4.10;;;5.50;99.90;;;;;;5078443;28;20457;-55
2022/04/17 05:42:07;;;;;;;7.60;4.40;;;5.60;99.90;;;;;;5078517;28;20504;-57
2022/04/17 05:44:37;;;;;;;6.03;3.93;;;5.60;99.90;;;;;;5078410;28;20805;-57
2022/04/17 05:47:05;;;;;;;5.00;4.17;;;5.80;99.90;;;;;;5078585;28;20551;-57
2022/04/17 05:49:32;;;;;;;5.13;4.60;;;6.00;99.90;;;;;;5078212;28;20813;-57
2022/04/17 05:51:59;;;;;;;4.70;4.30;;;6.20;99.90;;;;;;5078697;28;20516;-57
2022/04/17 05:54:29;;;;;;;6.50;4.27;;;6.20;99.90;;;;;;5077681;28;20507;-56
2022/04/17 05:56:56;;;;;;;4.87;4.17;;;6.30;99.90;;;;;;5078419;28;20518;-57
2022/04/17 05:59:28;;;;;;;4.60;4.10;;;6.50;99.90;;;;;;5078324;28;20526;-57
2022/04/17 06:01:58;;;;;;;4.77;4.37;;;6.70;99.90;;;;;;5077627;28;20492;-57
2022/04/17 06:04:25;;;;;;;5.43;3.90;;;6.80;99.90;;;;;;5078005;28;20530;-57
2022/04/17 06:06:55;;;;;;;5.17;4.13;;;7.00;99.90;;;;;;5078405;28;20449;-57
2022/04/17 06:09:23;;;;;;;5.13;3.53;;;7.10;99.90;;;;;;5078207;28;20457;-57
2022/04/17 06:11:55;;;;;;;4.60;4.20;;;7.30;99.90;;;;;;5076988;28;20557;-57
2022/04/17 06:14:22;;;;;;;6.00;4.00;;;7.50;99.90;;;;;;5077959;28;20909;-56
2022/04/17 06:16:49;;;;;;;6.70;4.90;;;7.70;99.90;;;;;;5077199;28;20462;-58
2022/04/17 06:19:18;;;;;;;4.33;3.60;;;7.90;99.90;;;;;;5077657;28;20519;-57
2022/04/17 06:21:53;;;;;;;5.93;3.87;;;8.20;99.90;;;;;;5077473;28;20485;-57
2022/04/17 06:24:28;;;;;;;6.40;4.00;;;8.50;99.90;;;;;;5077626;28;20536;-57
2022/04/17 06:26:55;;;;;;;4.93;4.03;;;8.80;99.90;;;;;;5077095;28;20848;-56
2022/04/17 06:29:22;;;;;;;5.90;3.83;;;9.20;99.90;;;;;;5077238;28;20462;-57
2022/04/17 06:31:49;;;;;;;4.97;4.17;;;9.40;99.90;;;;;;5077207;28;20449;-57
2022/04/17 06:34:20;;;;;;;4.27;3.87;;;9.70;99.90;;;;;;5078302;28;20730;-57
2022/04/17 06:36:48;;;;;;;3.87;3.53;;;10.20;99.90;;;;;;5077299;28;20522;-56
2022/04/17 06:39:15;;;;;;;3.80;3.40;;;10.40;99.90;;;;;;5077364;28;20519;-57
2022/04/17 06:41:43;;;;;;;3.97;3.00;;;10.60;99.90;;;;;;5077477;28;20821;-55
2022/04/17 06:44:14;;;;;;;4.30;3.90;;;10.90;99.90;;;;;;5077503;28;20540;-56
2022/04/17 06:46:51;;;;;;;5.17;3.13;;;11.20;99.90;;;;;;5077309;28;20457;-57
2022/04/17 06:49:24;;;;;;;4.47;3.57;;;11.40;99.90;;;;;;5077950;28;20468;-56
2022/04/17 06:51:54;;;;;;;3.57;3.27;;;11.60;99.90;;;;;;5078004;28;20465;-58
2022/04/17 06:54:27;;;;;;;4.00;3.00;;;11.90;99.90;;;;;;5076728;28;20461;-57
2022/04/17 06:57:04;;;;;;;4.50;3.50;;;11.90;99.90;;;;;;5076884;28;20461;-57
2022/04/17 06:59:39;;;;;;;3.43;3.13;;;11.80;99.90;;;;;;5077754;28;20471;-57
2022/04/17 07:02:11;;;;;;;3.57;3.27;;;12.10;99.90;;;;;;5077581;28;20499;-56
2022/04/17 07:04:39;;;;;;;3.50;3.07;;;12.30;99.90;;;;;;5074587;28;20587;-57
2022/04/17 07:09:55;;;;;;;9.93;6.00;;;12.90;99.90;;;;;;5075171;28;20440;-57
2022/04/17 07:12:25;;;;;;;6.60;4.53;;;13.30;99.90;;;;;;5077943;28;20517;-58
2022/04/17 07:14:53;;;;;;;6.70;4.00;;;13.70;99.90;;;;;;5076289;28;20890;-57
2022/04/17 07:17:32;;;;;;;3.83;3.53;;;13.80;99.90;;;;;;5076914;28;20988;-57
2022/04/17 07:20:09;;;;;;;5.80;5.03;;;13.70;99.90;;;;;;5076809;28;20815;-57
2022/04/17 07:22:37;;;;;;;33.30;19.23;;;13.80;99.90;;;;;;5077157;28;20493;-57
2022/04/17 07:25:10;;;;;;;3.37;3.07;;;13.80;99.90;;;;;;5076943;28;20515;-56
2022/04/17 07:27:38;;;;;;;4.50;3.60;;;14.10;99.90;;;;;;5077526;28;20853;-56
2022/04/17 07:30:12;;;;;;;4.07;3.30;;;14.30;99.90;;;;;;5076588;28;20499;-56
2022/04/17 07:32:45;;;;;;;4.77;3.03;;;14.30;99.90;;;;;;5080102;28;20807;-55
2022/04/17 07:35:15;;;;;;;5.13;3.80;;;14.10;99.90;;;;;;5081069;28;20503;-57
2022/04/17 07:37:47;;;;;;;12.10;7.50;;;13.90;99.90;;;;;;5081085;28;20945;-57
2022/04/17 07:40:18;;;;;;;5.53;4.93;;;14.00;99.90;;;;;;5081505;28;20461;-55
2022/04/17 07:42:46;;;;;;;3.37;3.07;;;14.20;99.90;;;;;;5080749;28;20500;-55
2022/04/17 07:45:25;;;;;;;7.10;4.20;;;14.40;99.90;;;;;;5071750;28;20477;-58
2022/04/17 07:47:53;;;;;;;5.03;4.23;;;14.30;99.90;;;;;;5080162;28;20820;-57
2022/04/17 07:50:26;;;;;;;8.00;5.30;;;13.60;99.90;;;;;;5080314;28;20538;-57
2022/04/17 07:52:55;;;;;;;7.87;5.93;;;13.60;99.90;;;;;;5080707;28;20515;-57
2022/04/17 07:55:28;;;;;;;7.03;4.30;;;13.70;99.90;;;;;;5080012;28;20503;-57
2022/04/17 07:58:00;;;;;;;5.07;4.57;;;14.10;99.90;;;;;;5081404;28;20468;-57
2022/04/17 08:00:42;;;;;;;9.37;8.40;;;14.60;99.90;;;;;;5080377;28;20461;-57
2022/04/17 08:03:20;;;;;;;4.30;3.73;;;15.10;99.90;;;;;;5080882;28;20583;-56
2022/04/17 08:05:50;;;;;;;5.63;3.77;;;15.60;99.90;;;;;;5080512;28;20852;-57
2022/04/17 08:08:22;;;;;;;3.80;3.20;;;15.30;99.90;;;;;;5080683;28;20528;-55
2022/04/17 08:10:49;;;;;;;4.37;3.97;;;15.10;99.90;;;;;;5080254;28;20470;-57
2022/04/17 08:13:16;;;;;;;5.63;5.13;;;15.10;99.90;;;;;;5080608;28;20810;-55
2022/04/17 08:15:44;;;;;;;3.83;3.50;;;15.00;99.90;;;;;;5080750;28;20526;-57
2022/04/17 08:18:13;;;;;;;5.23;4.73;;;15.00;99.90;;;;;;5079462;28;20527;-55
2022/04/17 08:20:40;;;;;;;3.67;3.03;;;15.00;99.90;;;;;;5079116;28;20453;-57
2022/04/17 08:23:13;;;;;;;4.27;3.27;;;15.10;99.90;;;;;;5079702;28;21117;-55
2022/04/17 08:25:40;;;;;;;3.60;3.40;;;15.50;99.90;;;;;;5079865;28;20449;-56
2022/04/17 08:28:07;;;;;;;4.23;3.77;;;15.80;99.90;;;;;;5079006;28;20457;-57
2022/04/17 08:30:40;;;;;;;4.63;3.67;;;16.00;99.90;;;;;;5079554;28;20550;-57
2022/04/17 08:33:09;;;;;;;3.93;3.47;;;16.10;99.90;;;;;;5080172;28;20832;-57
2022/04/17 08:35:39;;;;;;;4.67;3.90;;;16.50;99.90;;;;;;5079915;28;20790;-57
2022/04/17 08:38:14;;;;;;;4.23;3.83;;;16.40;99.90;;;;;;5079284;28;20511;-57
2022/04/17 08:40:43;;;;;;;3.50;3.10;;;16.60;99.90;;;;;;5080008;28;20465;-57
2022/04/17 08:43:13;;;;;;;3.50;3.20;;;16.40;99.90;;;;;;5078955;28;20795;-55
2022/04/17 08:45:41;;;;;;;3.67;3.33;;;16.50;99.90;;;;;;5079808;28;20461;-56
2022/04/17 08:48:09;;;;;;;4.20;3.70;;;16.50;99.90;;;;;;5079656;28;20511;-57
2022/04/17 08:50:42;;;;;;;3.53;3.20;;;16.70;99.90;;;;;;5079899;28;20930;-55
2022/04/17 08:53:17;;;;;;;3.93;3.30;;;16.80;99.90;;;;;;5079749;28;20457;-55
2022/04/17 08:55:52;;;;;;;6.10;3.80;;;16.90;99.90;;;;;;5080369;28;20533;-60
2022/04/17 08:58:19;;;;;;;4.10;3.60;;;16.60;99.90;;;;;;5079516;28;20552;-60
2022/04/17 09:00:49;;;;;;;6.97;3.67;;;16.80;99.90;;;;;;5080087;28;20476;-59
2022/04/17 09:03:16;;;;;;;3.40;3.10;;;17.10;99.90;;;;;;5079596;28;20485;-59
2022/04/17 09:05:47;;;;;;;4.00;3.60;;;17.40;99.90;;;;;;5080008;28;20465;-59
2022/04/17 09:08:17;;;;;;;3.40;3.10;;;17.10;99.90;;;;;;5080580;28;20493;-60
2022/04/17 09:10:56;;;;;;;5.13;3.63;;;17.30;99.90;;;;;;5059344;28;20808;-60
2022/04/17 09:13:35;;;;;;;3.70;3.13;;;17.60;99.90;;;;;;5065149;28;20504;-61
2022/04/17 09:16:05;;;;;;;5.00;3.10;;;17.90;99.90;;;;;;5077736;28;20469;-60
2022/04/17 09:18:33;;;;;;;3.53;3.23;;;18.10;99.90;;;;;;5078974;28;20465;-60
2022/04/17 09:21:02;;;;;;;4.13;3.10;;;18.10;99.90;;;;;;5078978;28;20491;-60
2022/04/17 09:23:40;;;;;;;3.37;3.17;;;18.30;99.90;;;;;;5078631;28;20485;-59
2022/04/17 09:26:09;;;;;;;3.63;3.33;;;18.60;99.90;;;;;;5079243;28;20469;-59
2022/04/17 09:28:45;;;;;;;3.37;3.10;;;18.60;99.90;;;;;;5079915;28;20465;-60
2022/04/17 09:31:17;;;;;;;3.13;2.83;;;18.70;99.90;;;;;;5078232;28;20553;-61
2022/04/17 09:33:49;;;;;;;3.57;2.97;;;18.50;99.90;;;;;;5079176;28;20746;-61
2022/04/17 09:36:37;;;;;;;3.90;3.50;;;19.10;99.90;;;;;;5080056;28;20435;-60
2022/04/17 09:39:15;;;;;;;4.83;3.43;;;19.40;99.90;;;;;;5078965;28;20493;-60
2022/04/17 09:42:01;;;;;;;3.87;3.57;;;19.60;99.90;;;;;;5070749;28;20467;-60
2022/04/17 09:44:38;;;;;;;3.60;3.30;;;19.40;99.90;;;;;;5053349;28;20580;-60
2022/04/17 09:47:09;;;;;;;3.43;3.13;;;19.30;99.90;;;;;;5078544;28;20473;-61
2022/04/17 09:49:59;;;;;;;2.80;2.60;;;19.20;99.90;;;;;;5078977;28;20769;-60
2022/04/17 09:52:31;;;;;;;4.37;2.90;;;19.50;99.90;;;;;;5078536;28;20465;-60
2022/04/17 09:55:04;;;;;;;3.17;2.97;;;19.50;99.90;;;;;;5077759;28;20519;-61
2022/04/17 09:57:35;;;;;;;4.37;2.90;;;20.10;99.90;;;;;;5078901;28;20507;-60
2022/04/17 10:00:11;;;;;;;3.00;2.80;;;20.50;99.90;;;;;;5078451;28;20461;-61
2022/04/17 10:02:39;;;;;;;2.93;2.73;;;20.30;99.90;;;;;;5077198;28;20462;-60
2022/04/17 10:05:11;;;;;;;2.80;2.60;;;20.20;99.90;;;;;;5078765;28;20465;-60
2022/04/17 10:07:41;;;;;;;4.93;2.80;;;19.80;99.90;;;;;;5078983;28;20897;-60
2022/04/17 10:10:14;;;;;;;4.63;2.90;;;19.80;99.90;;;;;;5078355;28;20518;-60
2022/04/17 10:12:51;;;;;;;3.47;2.37;;;20.40;99.90;;;;;;5077273;28;20775;-60
2022/04/17 10:15:21;;;;;;;2.77;2.57;;;21.00;99.90;;;;;;5078122;28;20457;-60
2022/04/17 10:17:52;;;;;;;2.90;2.70;;;20.80;99.90;;;;;;5077290;28;20515;-60
2022/04/17 10:20:20;;;;;;;3.70;2.87;;;20.60;99.90;;;;;;5077895;28;20484;-61
2022/04/17 10:23:01;;;;;;;2.93;2.67;;;20.20;99.90;;;;;;5062050;28;20581;-59
2022/04/17 10:25:35;;;;;;;2.57;2.37;;;20.90;99.90;;;;;;5058009;28;20466;-60
2022/04/17 10:28:06;;;;;;;3.20;2.90;;;21.10;99.90;;;;;;5058113;28;20462;-59
2022/04/17 10:30:49;;;;;;;2.63;2.43;;;21.50;99.90;;;;;;5063618;28;20898;-59
2022/04/17 10:33:33;;;;;;;3.17;2.87;;;22.10;99.90;;;;;;5076337;28;20461;-60
2022/04/17 10:36:38;;;;;;;2.90;2.70;;;22.20;99.90;;;;;;5076258;28;20526;-59
2022/04/17 10:39:20;;;;;;;3.00;2.70;;;22.60;99.90;;;;;;5075196;28;20488;-61
2022/04/17 10:41:55;;;;;;;2.53;2.40;;;22.20;99.90;;;;;;5077572;28;20465;-59
2022/04/17 10:47:44;;;;;;;3.10;2.90;;;22.20;99.90;;;;;;5076362;28;20438;-61
2022/04/17 10:50:21;;;;;;;2.80;2.50;;;22.30;99.90;;;;;;5076678;28;20457;-61
2022/04/17 10:52:48;;;;;;;2.90;2.60;;;22.50;99.90;;;;;;5076914;28;20473;-60
2022/04/17 10:55:15;;;;;;;2.70;2.53;;;22.50;99.90;;;;;;5077242;28;20749;-60
2022/04/17 10:57:53;;;;;;;2.70;2.50;;;22.20;99.90;;;;;;5077003;28;20465;-61
2022/04/17 11:00:43;;;;;;;3.10;2.90;;;22.40;99.90;;;;;;5076854;28;20453;-60
2022/04/17 11:03:27;;;;;;;2.43;2.23;;;22.70;99.90;;;;;;5077089;28;20781;-61
2022/04/17 11:06:10;;;;;;;2.97;2.67;;;22.80;99.90;;;;;;5076560;28;20461;-59
2022/04/17 11:08:48;;;;;;;2.80;2.60;;;22.60;99.90;;;;;;5075905;28;20511;-60
2022/04/17 11:11:18;;;;;;;3.83;2.90;;;22.80;99.90;;;;;;5076659;28;20465;-60
2022/04/17 11:14:12;;;;;;;3.27;2.93;;;22.90;99.90;;;;;;5076442;28;20457;-60
2022/04/17 11:17:08;;;;;;;2.87;2.67;;;23.30;99.90;;;;;;5076815;28;20477;-60
2022/04/17 11:19:40;;;;;;;3.50;3.10;;;23.20;99.90;;;;;;5074686;28;20469;-59
2022/04/17 11:22:09;;;;;;;3.03;2.83;;;23.00;99.90;;;;;;5076173;28;20461;-61
2022/04/17 11:25:02;;;;;;;3.00;2.73;;;22.80;99.90;;;;;;5075651;28;20489;-61
2022/04/17 11:27:45;;;;;;;2.70;2.50;;;22.30;99.90;;;;;;5068340;28;20472;-61
2022/04/17 11:30:40;;;;;;;3.17;2.87;;;22.30;99.90;;;;;;5075889;28;20456;-60
2022/04/17 11:33:15;;;;;;;2.73;2.53;;;22.00;99.90;;;;;;5075523;28;20460;-61
2022/04/17 11:35:42;;;;;;;3.23;2.43;;;22.30;99.90;;;;;;5076797;28;20460;-61
2022/04/17 11:38:16;;;;;;;3.17;2.87;;;22.60;99.90;;;;;;5076228;28;20489;-61
2022/04/17 11:40:44;;;;;;;3.17;2.97;;;22.30;99.90;;;;;;5074153;28;20461;-61
2022/04/17 11:43:14;;;;;;;2.90;2.67;;;22.80;99.90;;;;;;5076639;28;20492;-60
2022/04/17 11:45:46;;;;;;;2.60;2.37;;;22.80;99.90;;;;;;5076080;28;20559;-60
2022/04/17 11:48:18;;;;;;;2.97;2.77;;;23.00;99.90;;;;;;5076778;28;20713;-60
2022/04/17 11:50:45;;;;;;;2.73;2.53;;;23.20;99.90;;;;;;5076042;28;20470;-61
2022/04/17 11:54:07;;;;;;;2.63;2.43;;;23.00;99.90;;;;;;5077043;28;20469;-61
2022/04/17 11:56:52;;;;;;;3.93;2.37;;;23.30;99.90;;;;;;5043260;28;20530;-60
2022/04/17 12:00:00;;;;;;;3.00;2.70;;;23.10;99.90;;;;;;5076725;28;20910;-61
2022/04/17 12:02:32;;;;;;;2.50;2.30;;;23.30;99.90;;;;;;5075316;28;20823;-60
2022/04/17 12:08:06;;;;;;;2.70;2.50;;;23.00;99.90;;;;;;5072687;28;20540;-61
2022/04/17 12:10:38;;;;;;;3.10;2.80;;;22.60;99.90;;;;;;5076977;28;20467;-61
2022/04/17 12:13:16;;;;;;;2.63;2.43;;;22.30;99.90;;;;;;5075809;28;20503;-61
2022/04/17 12:15:44;;;;;;;2.73;2.53;;;22.80;99.90;;;;;;5075601;28;20458;-60
2022/04/17 12:18:19;;;;;;;3.27;2.97;;;22.90;99.90;;;;;;5078692;28;20475;-61
2022/04/17 12:21:06;;;;;;;2.80;2.60;;;23.20;99.90;;;;;;5079663;28;20460;-61
2022/04/17 12:23:33;;;;;;;2.87;2.63;;;23.70;99.90;;;;;;5079247;28;20493;-61
2022/04/17 12:26:02;;;;;;;3.33;3.03;;;24.10;99.90;;;;;;5079611;28;20463;-61
2022/04/17 12:28:31;;;;;;;3.63;2.60;;;24.20;99.90;;;;;;5079669;28;20511;-60
2022/04/17 12:31:01;;;;;;;2.87;2.57;;;24.30;99.90;;;;;;5079558;28;20587;-61
2022/04/17 12:33:39;;;;;;;3.03;2.70;;;24.20;99.90;;;;;;5080412;28;20465;-61
2022/04/17 12:36:08;;;;;;;4.70;2.80;;;24.30;99.90;;;;;;5079950;28;20504;-62
2022/04/17 12:38:36;;;;;;;2.67;2.50;;;24.90;99.90;;;;;;5079457;28;20485;-61
2022/04/17 12:41:18;;;;;;;2.30;2.20;;;24.90;99.90;;;;;;5079563;28;20461;-61
2022/04/17 12:43:50;;;;;;;2.83;2.63;;;24.50;99.90;;;;;;5077733;28;20485;-60
2022/04/17 12:46:25;;;;;;;2.70;2.50;;;24.40;99.90;;;;;;5078160;28;20472;-61
2022/04/17 12:49:10;;;;;;;2.30;2.20;;;24.40;99.90;;;;;;5059527;28;20462;-60
2022/04/17 12:51:38;;;;;;;3.00;2.80;;;24.80;99.90;;;;;;5067221;28;20518;-61
2022/04/17 12:54:12;;;;;;;2.77;2.57;;;24.90;99.90;;;;;;5079269;28;20462;-61
2022/04/17 12:56:40;;;;;;;2.80;2.60;;;24.60;99.90;;;;;;5079508;28;20556;-61
2022/04/17 12:59:21;;;;;;;2.73;2.50;;;24.90;99.90;;;;;;5078719;28;20468;-61
2022/04/17 13:01:53;;;;;;;3.07;2.87;;;25.00;99.90;;;;;;5079629;28;20519;-61
2022/04/17 13:04:23;;;;;;;1.90;1.80;;;25.30;99.90;;;;;;5079292;28;20493;-61
2022/04/17 13:07:15;;;;;;;2.30;2.10;;;24.80;99.90;;;;;;5078315;28;20469;-61
2022/04/17 13:09:58;;;;;;;2.60;2.40;;;24.70;99.90;;;;;;5078865;28;20770;-61
2022/04/17 13:12:32;;;;;;;2.50;2.30;;;24.50;99.90;;;;;;5077252;28;20467;-61
2022/04/17 13:15:05;;;;;;;2.73;2.53;;;24.70;99.90;;;;;;5078280;28;20510;-61
2022/04/17 13:17:43;;;;;;;2.70;2.50;;;24.20;99.90;;;;;;5079583;28;20472;-61
2022/04/17 13:20:13;;;;;;;2.60;2.40;;;24.50;99.90;;;;;;5078893;28;20800;-61
2022/04/17 13:22:40;;;;;;;2.90;2.70;;;25.00;99.90;;;;;;5078756;28;20909;-60
2022/04/17 13:25:14;;;;;;;2.70;2.07;;;25.30;99.90;;;;;;5078433;28;20498;-61
2022/04/17 13:27:41;;;;;;;2.13;1.93;;;24.20;99.90;;;;;;5078533;28;20991;-60
2022/04/17 13:30:15;;;;;;;2.97;2.77;;;23.70;99.90;;;;;;5076053;28;20495;-61
2022/04/17 13:32:45;;;;;;;2.23;2.13;;;24.60;99.90;;;;;;5078057;28;20530;-61
2022/04/17 13:35:17;;;;;;;2.93;2.50;;;24.90;99.90;;;;;;5078799;28;20507;-60
2022/04/17 13:40:33;;;;;;;2.80;2.27;;;24.90;99.90;;;;;;5076769;28;20440;-60
2022/04/17 13:43:00;;;;;;;2.30;2.20;;;24.90;99.90;;;;;;5077388;28;20543;-61
2022/04/17 13:45:29;;;;;;;2.97;2.77;;;24.50;99.90;;;;;;5056715;28;20533;-60